Time;durP1;ratioP1;P1;durP2;ratioP2;P2;SDS_P1;SDS_P2;PMS_P1;PMS_P2;Temp;Humidity;BMP_temperature;BMP_pressure;BME280_temperature;BME280_humidity;BME280_pressure;Samples;Min_cycle;Max_cycle;Signal;HPM_P1;HPM_P2
2024/01/08 00:01:59;;;;;;;;;;;;;;;22.34;26.89;96384.09;5059518;28;1038;-74
2024/01/08 00:04:25;;;;;;;;;;;;;;;22.12;27.42;96389.34;5059475;28;1026;-74
2024/01/08 00:06:51;;;;;;;;;;;;;;;22.25;27.54;96395.53;5076573;28;924;-74
2024/01/08 00:09:17;;;;;;;;;;;;;;;21.95;27.63;96391.06;5059526;28;940;-74
2024/01/08 00:11:43;;;;;;;;;;;;;;;22.03;27.64;96392.25;5059594;28;1261;-75
2024/01/08 00:14:08;;;;;;;;;;;;;;;22.19;27.72;96388.97;5059659;28;1018;-75
2024/01/08 00:16:34;;;;;;;;;;;;;;;22.58;27.09;96395.31;5042576;28;1914;-74
2024/01/08 00:18:59;;;;;;;;;;;;;;;22.50;27.22;96401.88;5059108;28;914;-74
2024/01/08 00:21:27;;;;;;;;;;;;;;;22.42;27.36;96409.19;5059282;28;956;-74
2024/01/08 00:23:52;;;;;;;;;;;;;;;22.60;26.84;96406.16;5075643;28;987;-74
2024/01/08 00:26:18;;;;;;;;;;;;;;;22.61;26.96;96410.56;5042704;28;1311;-74
2024/01/08 00:28:45;;;;;;;;;;;;;;;22.22;27.40;96421.97;5071689;28;999;-74
2024/01/08 00:31:10;;;;;;;;;;;;;;;22.30;27.46;96428.06;5076827;28;979;-74
2024/01/08 00:33:36;;;;;;;;;;;;;;;22.05;27.88;96424.47;5076783;28;908;-74
2024/01/08 00:36:01;;;;;;;;;;;;;;;22.17;27.84;96433.22;5084587;28;1906;-74
2024/01/08 00:38:27;;;;;;;;;;;;;;;22.32;27.57;96436.84;5080077;28;920;-74
2024/01/08 00:40:53;;;;;;;;;;;;;;;22.28;27.66;96437.06;5079815;28;996;-75
2024/01/08 00:43:18;;;;;;;;;;;;;;;22.12;28.04;96429.00;5080230;28;928;-74
2024/01/08 00:45:44;;;;;;;;;;;;;;;22.19;27.95;96430.69;5097579;28;879;-75
2024/01/08 00:48:09;;;;;;;;;;;;;;;22.39;27.74;96430.03;5063203;28;1497;-75
2024/01/08 00:50:35;;;;;;;;;;;;;;;22.42;27.42;96437.53;5080132;28;987;-74
2024/01/08 00:53:00;;;;;;;;;;;;;;;22.50;27.33;96436.66;5078597;28;1033;-75
2024/01/08 00:55:26;;;;;;;;;;;;;;;22.66;27.22;96438.22;5062733;28;1981;-74
2024/01/08 00:57:52;;;;;;;;;;;;;;;22.70;26.93;96438.81;5097587;28;955;-75
2024/01/08 01:00:17;;;;;;;;;;;;;;;22.68;27.04;96441.34;5079877;28;952;-74
2024/01/08 01:02:43;;;;;;;;;;;;;;;22.31;27.32;96443.78;5097665;28;866;-74
2024/01/08 01:05:08;;;;;;;;;;;;;;;22.16;27.92;96448.66;5097822;28;925;-74
2024/01/08 01:07:34;;;;;;;;;;;;;;;22.32;27.67;96451.78;5079795;28;957;-74
2024/01/08 01:10:00;;;;;;;;;;;;;;;22.26;28.00;96456.56;5046086;28;1107;-74
2024/01/08 01:12:25;;;;;;;;;;;;;;;22.12;28.13;96457.34;5062827;28;1220;-74
2024/01/08 01:14:51;;;;;;;;;;;;;;;22.07;28.23;96457.97;5097270;28;1914;-74
2024/01/08 01:17:17;;;;;;;;;;;;;;;22.02;28.43;96452.97;5062622;28;1265;-75
2024/01/08 01:19:42;;;;;;;;;;;;;;;22.31;27.93;96457.94;5078946;28;927;-74
2024/01/08 01:22:08;;;;;;;;;;;;;;;22.25;27.96;96452.19;5079591;28;918;-74
2024/01/08 01:24:33;;;;;;;;;;;;;;;21.89;28.67;96456.09;5097400;28;940;-74
2024/01/08 01:26:59;;;;;;;;;;;;;;;22.31;27.93;96447.41;5097219;28;906;-74
2024/01/08 01:29:24;;;;;;;;;;;;;;;22.72;27.33;96453.25;5061511;28;1102;-74
2024/01/08 01:31:50;;;;;;;;;;;;;;;22.55;27.48;96455.03;5097225;28;1041;-74
2024/01/08 01:34:17;;;;;;;;;;;;;;;22.32;27.88;96453.84;5096916;28;924;-74
2024/01/08 01:36:44;;;;;;;;;;;;;;;22.49;27.73;96448.50;5062361;28;1969;-74
2024/01/08 01:39:10;;;;;;;;;;;;;;;22.45;27.81;96447.91;5078989;28;872;-75
2024/01/08 01:41:36;;;;;;;;;;;;;;;22.29;27.96;96449.94;5062391;28;1226;-74
2024/01/08 01:44:02;;;;;;;;;;;;;;;22.32;27.86;96440.44;5062225;28;1305;-74
2024/01/08 01:46:39;;;;;;;;;;;;;;;22.01;28.09;96442.94;5062098;28;1241;-74
2024/01/08 01:49:04;;;;;;;;;;;;;;;22.00;28.35;96450.66;5078879;28;933;-74
2024/01/08 01:51:30;;;;;;;;;;;;;;;21.98;28.53;96452.41;5062529;28;1048;-74
2024/01/08 01:53:57;;;;;;;;;;;;;;;22.17;28.25;96453.81;5078633;28;1161;-74
2024/01/08 01:56:23;;;;;;;;;;;;;;;22.10;28.08;96451.34;5078884;28;1901;-74
2024/01/08 01:58:48;;;;;;;;;;;;;;;22.00;28.50;96450.66;5078960;28;943;-75
2024/01/08 02:01:14;;;;;;;;;;;;;;;22.23;28.16;96454.72;5078699;28;973;-74
2024/01/08 02:03:40;;;;;;;;;;;;;;;22.19;28.22;96445.63;5078725;28;945;-74
2024/01/08 02:06:06;;;;;;;;;;;;;;;22.41;28.07;96455.81;5079068;28;1104;-74
2024/01/08 02:08:31;;;;;;;;;;;;;;;22.24;28.27;96453.47;5097241;28;845;-74
2024/01/08 02:10:57;;;;;;;;;;;;;;;22.35;28.10;96461.38;5061865;28;1104;-74
2024/01/08 02:13:23;;;;;;;;;;;;;;;22.65;27.47;96464.25;5061935;28;1020;-74
2024/01/08 02:15:49;;;;;;;;;;;;;;;22.73;27.33;96466.16;5073663;28;1898;-75
2024/01/08 02:18:14;;;;;;;;;;;;;;;21.99;28.23;96465.31;5057497;28;1113;-74
2024/01/08 02:20:40;;;;;;;;;;;;;;;22.30;27.91;96460.00;5074301;28;927;-74
2024/01/08 02:23:05;;;;;;;;;;;;;;;21.96;28.39;96461.38;5074042;28;1089;-74
2024/01/08 02:25:31;;;;;;;;;;;;;;;22.25;28.04;96468.41;5057496;28;1130;-74
2024/01/08 02:27:57;;;;;;;;;;;;;;;21.99;28.53;96479.47;5037280;28;1059;-74
2024/01/08 02:30:22;;;;;;;;;;;;;;;22.65;27.50;96479.19;5037330;28;938;-74
2024/01/08 02:32:48;;;;;;;;;;;;;;;22.71;27.55;96485.72;5037386;28;1049;-74
2024/01/08 02:35:14;;;;;;;;;;;;;;;22.67;27.58;96485.13;5020744;28;1906;-74
2024/01/08 02:37:39;;;;;;;;;;;;;;;22.70;27.52;96481.34;5004708;28;1240;-74
2024/01/08 02:40:05;;;;;;;;;;;;;;;22.43;27.78;96495.78;5053628;28;978;-74
2024/01/08 02:42:31;;;;;;;;;;;;;;;21.87;28.03;96491.84;5021010;28;1184;-74
2024/01/08 02:44:57;;;;;;;;;;;;;;;22.17;28.12;96499.16;5036749;28;908;-74
2024/01/08 02:47:22;;;;;;;;;;;;;;;22.22;27.85;96492.81;5037318;28;966;-74
2024/01/08 02:49:48;;;;;;;;;;;;;;;22.34;27.77;96496.66;5037029;28;981;-74
2024/01/08 02:52:13;;;;;;;;;;;;;;;22.33;27.78;96507.22;5053631;28;995;-74
2024/01/08 02:54:39;;;;;;;;;;;;;;;22.58;27.55;96516.41;5023309;28;964;-74
2024/01/08 02:57:04;;;;;;;;;;;;;;;22.61;27.47;96509.78;5057388;28;1917;-75
2024/01/08 02:59:30;;;;;;;;;;;;;;;22.53;27.36;96514.25;5054614;28;941;-74
2024/01/08 03:01:55;;;;;;;;;;;;;;;22.74;27.27;96518.78;5081906;28;900;-74
2024/01/08 03:04:21;;;;;;;;;;;;;;;22.74;27.09;96513.13;5077496;28;1317;-74
2024/01/08 03:06:47;;;;;;;;;;;;;;;22.61;26.96;96521.13;5060964;28;1192;-74
2024/01/08 03:09:12;;;;;;;;;;;;;;;22.31;27.27;96512.56;5077279;28;1010;-74
2024/01/08 03:11:38;;;;;;;;;;;;;;;22.20;27.79;96515.19;5060830;28;988;-74
2024/01/08 03:14:03;;;;;;;;;;;;;;;22.39;27.62;96509.38;5056800;28;1063;-74
2024/01/08 03:16:29;;;;;;;;;;;;;;;22.29;27.66;96500.94;5040732;28;1977;-74
2024/01/08 03:18:54;;;;;;;;;;;;;;;21.84;28.25;96514.16;5057084;28;1230;-74
2024/01/08 03:21:20;;;;;;;;;;;;;;;22.30;27.68;96525.19;5040584;28;1110;-74
2024/01/08 03:23:45;;;;;;;;;;;;;;;22.23;27.73;96519.13;5040315;28;1221;-73
2024/01/08 03:26:11;;;;;;;;;;;;;;;22.21;27.79;96516.75;5040617;28;922;-74
2024/01/08 03:28:37;;;;;;;;;;;;;;;22.03;27.97;96511.22;5040326;28;1218;-74
2024/01/08 03:31:02;;;;;;;;;;;;;;;21.95;28.25;96510.78;5056830;28;903;-74
2024/01/08 03:33:28;;;;;;;;;;;;;;;22.27;27.49;96526.13;5056983;28;1009;-74
2024/01/08 03:35:55;;;;;;;;;;;;;;;22.45;27.22;96519.53;5040216;28;1971;-74
2024/01/08 03:38:20;;;;;;;;;;;;;;;22.42;27.42;96531.84;5040546;28;1052;-75
2024/01/08 03:40:46;;;;;;;;;;;;;;;22.19;27.79;96539.13;5023669;28;1087;-74
2024/01/08 03:43:12;;;;;;;;;;;;;;;22.17;27.72;96535.97;5056863;28;934;-75
2024/01/08 03:45:37;;;;;;;;;;;;;;;22.31;27.44;96543.75;5023575;28;1265;-74
2024/01/08 03:48:03;;;;;;;;;;;;;;;22.32;27.45;96550.97;5039679;28;947;-74
2024/01/08 03:50:29;;;;;;;;;;;;;;;22.42;27.34;96565.06;5027210;28;1252;-74
2024/01/08 03:52:54;;;;;;;;;;;;;;;22.48;26.98;96566.72;5059557;28;1480;-75
2024/01/08 03:55:20;;;;;;;;;;;;;;;22.33;27.23;96575.22;5076671;28;1984;-74
2024/01/08 03:57:45;;;;;;;;;;;;;;;22.54;26.89;96584.66;5059760;28;1146;-74
2024/01/08 04:00:11;;;;;;;;;;;;;;;22.49;27.02;96590.22;5059573;28;957;-74
2024/01/08 04:02:42;;;;;;;;;;;;;;;22.40;27.30;96591.06;5076151;28;923;-74
2024/01/08 04:05:11;;;;;;;;;;;;;;;22.33;27.19;96602.78;5076406;28;950;-74
2024/01/08 04:07:37;;;;;;;;;;;;;;;22.35;27.02;96606.69;5043268;28;1372;-74
2024/01/08 04:10:04;;;;;;;;;;;;;;;22.31;27.14;96606.06;5059622;28;1242;-74
2024/01/08 04:12:30;;;;;;;;;;;;;;;22.25;27.30;96613.69;5042544;28;1107;-74
2024/01/08 04:14:55;;;;;;;;;;;;;;;22.16;27.36;96608.06;5076229;28;956;-75
2024/01/08 04:17:21;;;;;;;;;;;;;;;22.06;27.77;96610.16;5059395;28;1902;-75
2024/01/08 04:19:46;;;;;;;;;;;;;;;22.14;27.87;96612.66;5055679;28;988;-74
2024/01/08 04:22:12;;;;;;;;;;;;;;;22.20;27.37;96620.00;5039312;28;1038;-74
2024/01/08 04:24:38;;;;;;;;;;;;;;;22.31;27.39;96631.59;5022364;28;1056;-74
2024/01/08 04:27:03;;;;;;;;;;;;;;;22.35;27.38;96631.41;4996087;28;1315;-74
2024/01/08 04:29:29;;;;;;;;;;;;;;;22.50;27.11;96628.63;4996573;28;983;-74
2024/01/08 04:31:54;;;;;;;;;;;;;;;22.49;27.19;96638.41;4996524;28;922;-74
2024/01/08 04:34:20;;;;;;;;;;;;;;;22.60;26.83;96635.78;4996266;28;1208;-74
2024/01/08 04:36:45;;;;;;;;;;;;;;;22.40;26.79;96641.31;4987727;28;1973;-74
2024/01/08 04:39:11;;;;;;;;;;;;;;;22.34;26.78;96641.97;4987808;28;1305;-74
2024/01/08 04:41:37;;;;;;;;;;;;;;;22.22;26.71;96659.19;4980159;28;999;-74
2024/01/08 04:44:02;;;;;;;;;;;;;;;22.22;27.10;96659.97;4996010;28;966;-74
2024/01/08 04:46:28;;;;;;;;;;;;;;;21.72;27.86;96662.41;4980036;28;969;-74
2024/01/08 04:48:53;;;;;;;;;;;;;;;22.05;27.46;96662.41;4979502;28;1234;-74
2024/01/08 04:51:20;;;;;;;;;;;;;;;22.02;27.50;96656.91;5024609;28;1181;-74
2024/01/08 04:53:45;;;;;;;;;;;;;;;22.37;26.96;96660.03;5018687;28;1089;-74
2024/01/08 04:56:18;;;;;;;;;;;;;;;22.52;26.45;96660.88;5035281;28;1898;-74
2024/01/08 04:58:44;;;;;;;;;;;;;;;22.52;26.94;96665.75;5003244;28;1122;-75
2024/01/08 05:01:09;;;;;;;;;;;;;;;22.51;26.64;96664.19;5015342;28;1244;-74
2024/01/08 05:03:35;;;;;;;;;;;;;;;22.42;26.64;96667.88;5036481;28;1507;-74
2024/01/08 05:06:00;;;;;;;;;;;;;;;22.23;26.94;96661.56;5006808;28;1481;-74
2024/01/08 05:08:26;;;;;;;;;;;;;;;21.78;27.44;96671.81;5034378;28;1647;-74
2024/01/08 05:10:52;;;;;;;;;;;;;;;21.72;27.45;96668.09;5034191;28;1329;-75
2024/01/08 05:13:17;;;;;;;;;;;;;;;22.21;26.90;96675.41;5034603;28;1011;-74
2024/01/08 05:15:43;;;;;;;;;;;;;;;22.04;27.38;96677.06;5074024;28;1894;-74
2024/01/08 05:18:08;;;;;;;;;;;;;;;22.27;27.12;96670.66;5062173;28;1245;-74
2024/01/08 05:20:34;;;;;;;;;;;;;;;22.56;26.70;96672.03;5095605;28;1570;-74
2024/01/08 05:22:59;;;;;;;;;;;;;;;22.39;26.69;96663.19;5079268;28;928;-74
2024/01/08 05:25:25;;;;;;;;;;;;;;;22.59;26.49;96662.59;5095911;28;895;-74
2024/01/08 05:27:51;;;;;;;;;;;;;;;22.33;26.66;96665.13;5097613;28;912;-74
2024/01/08 05:30:16;;;;;;;;;;;;;;;22.71;26.18;96666.41;5077021;28;1406;-74
2024/01/08 05:32:42;;;;;;;;;;;;;;;22.69;26.00;96681.09;5095776;28;1352;-74
2024/01/08 05:35:08;;;;;;;;;;;;;;;22.59;26.02;96676.75;5097031;28;1898;-75
2024/01/08 05:37:33;;;;;;;;;;;;;;;22.24;26.52;96680.13;5079496;28;1260;-74
2024/01/08 05:39:59;;;;;;;;;;;;;;;22.11;26.71;96679.56;5078565;28;961;-74
2024/01/08 05:42:24;;;;;;;;;;;;;;;21.95;27.20;96691.25;5054430;28;1073;-74
2024/01/08 05:44:50;;;;;;;;;;;;;;;22.00;26.78;96687.78;5037653;28;958;-74
2024/01/08 05:47:15;;;;;;;;;;;;;;;22.62;25.76;96687.13;5052899;28;1469;-75
2024/01/08 05:49:42;;;;;;;;;;;;;;;22.46;26.16;96682.66;5054673;28;942;-74
2024/01/08 05:52:08;;;;;;;;;;;;;;;22.66;26.07;96693.38;5054072;28;1075;-74
2024/01/08 05:54:34;;;;;;;;;;;;;;;22.43;26.35;96685.66;5030787;28;1050;-74
2024/01/08 05:56:59;;;;;;;;;;;;;;;22.03;26.54;96692.50;5011727;28;1910;-74
2024/01/08 05:59:25;;;;;;;;;;;;;;;22.20;26.36;96707.84;5014391;28;966;-74
2024/01/08 06:01:50;;;;;;;;;;;;;;;22.12;26.27;96706.63;5013449;28;1457;-74
2024/01/08 06:04:16;;;;;;;;;;;;;;;22.28;26.31;96703.41;5014794;28;1243;-74
2024/01/08 06:06:41;;;;;;;;;;;;;;;22.28;26.09;96705.47;4978551;28;1048;-74
2024/01/08 06:09:08;;;;;;;;;;;;;;;22.05;26.29;96712.63;4978491;28;1007;-74
2024/01/08 06:11:34;;;;;;;;;;;;;;;22.14;26.13;96721.09;4978636;28;1025;-74
2024/01/08 06:14:00;;;;;;;;;;;;;;;22.34;25.84;96721.31;5008014;28;962;-74
2024/01/08 06:16:30;;;;;;;;;;;;;;;21.74;26.83;96727.84;5016901;28;1910;-74
2024/01/08 06:18:56;;;;;;;;;;;;;;;22.27;26.25;96738.66;5001295;28;1366;-75
2024/01/08 06:21:21;;;;;;;;;;;;;;;22.35;26.13;96748.38;5017250;28;1599;-74
2024/01/08 06:23:47;;;;;;;;;;;;;;;22.54;25.71;96748.28;5017277;28;1049;-75
2024/01/08 06:26:13;;;;;;;;;;;;;;;22.52;25.57;96762.13;5030476;28;1395;-74
2024/01/08 06:28:38;;;;;;;;;;;;;;;22.60;25.69;96764.16;5023847;28;1696;-74
2024/01/08 06:31:04;;;;;;;;;;;;;;;22.23;25.53;96774.91;5040920;28;928;-74
2024/01/08 06:33:30;;;;;;;;;;;;;;;22.00;25.90;96778.41;5024050;28;1663;-74
2024/01/08 06:35:55;;;;;;;;;;;;;;;22.02;26.15;96775.88;5041210;28;1902;-74
2024/01/08 06:38:21;;;;;;;;;;;;;;;22.13;25.93;96789.59;5073058;28;905;-75
2024/01/08 06:40:46;;;;;;;;;;;;;;;22.12;25.79;96785.16;5100266;28;1041;-74
2024/01/08 06:43:13;;;;;;;;;;;;;;;22.52;25.46;96802.59;5065559;28;1201;-74
2024/01/08 06:45:38;;;;;;;;;;;;;;;22.49;25.67;96794.31;5065111;28;1627;-74
2024/01/08 06:48:04;;;;;;;;;;;;;;;22.56;25.56;96802.44;5081919;28;953;-74
2024/01/08 06:50:29;;;;;;;;;;;;;;;22.36;25.45;96806.63;5064446;28;1002;-74
2024/01/08 06:52:55;;;;;;;;;;;;;;;22.31;25.44;96809.31;5065176;28;1118;-74
2024/01/08 06:55:21;;;;;;;;;;;;;;;22.05;25.83;96808.91;5081998;28;1906;-74
2024/01/08 06:57:49;;;;;;;;;;;;;;;22.01;25.85;96799.78;5082000;28;942;-74
2024/01/08 07:00:15;;;;;;;;;;;;;;;22.16;25.92;96809.22;5099037;28;1361;-73
2024/01/08 07:02:41;;;;;;;;;;;;;;;22.15;25.85;96807.66;5082028;28;961;-74
2024/01/08 07:05:07;;;;;;;;;;;;;;;21.95;26.19;96815.88;5057027;28;1005;-74
2024/01/08 07:07:32;;;;;;;;;;;;;;;22.53;25.30;96834.56;5040592;28;1156;-74
2024/01/08 07:09:58;;;;;;;;;;;;;;;22.35;25.39;96830.56;5040293;28;1421;-74
2024/01/08 07:12:23;;;;;;;;;;;;;;;22.72;24.99;96833.22;5024053;28;967;-74
2024/01/08 07:14:50;;;;;;;;;;;;;;;22.47;25.19;96845.78;5040345;28;973;-74
2024/01/08 07:17:16;;;;;;;;;;;;;;;22.50;24.91;96841.22;5007706;28;1910;-74
2024/01/08 07:19:42;;;;;;;;;;;;;;;22.46;25.06;96846.28;5040509;28;967;-74
2024/01/08 07:22:07;;;;;;;;;;;;;;;22.05;25.40;96855.03;5023898;28;992;-74
2024/01/08 07:24:33;;;;;;;;;;;;;;;22.31;25.27;96866.00;5023053;28;1564;-74
2024/01/08 07:26:58;;;;;;;;;;;;;;;22.25;25.28;96863.03;5040876;28;1020;-74
2024/01/08 07:29:24;;;;;;;;;;;;;;;22.41;25.08;96872.44;5023720;28;1130;-74
2024/01/08 07:31:50;;;;;;;;;;;;;;;22.49;25.11;96876.50;5039925;28;1006;-74
2024/01/08 07:34:16;;;;;;;;;;;;;;;22.53;25.00;96877.88;5036937;28;1046;-74
2024/01/08 07:36:41;;;;;;;;;;;;;;;22.35;25.22;96884.41;5036236;28;1926;-74
2024/01/08 07:39:07;;;;;;;;;;;;;;;22.32;25.34;96876.84;5019282;28;1348;-74
2024/01/08 07:41:32;;;;;;;;;;;;;;;22.50;24.49;96878.06;5016547;28;1019;-74
2024/01/08 07:43:58;;;;;;;;;;;;;;;21.97;25.55;96887.00;5017056;28;989;-74
2024/01/08 07:46:23;;;;;;;;;;;;;;;22.30;24.93;96893.56;4996672;28;1023;-74
2024/01/08 07:48:50;;;;;;;;;;;;;;;22.14;25.17;96888.25;4997190;28;1104;-74
2024/01/08 07:51:25;;;;;;;;;;;;;;;22.20;25.35;96897.66;4997134;28;971;-74
2024/01/08 07:53:50;;;;;;;;;;;;;;;22.32;25.17;96902.34;4974118;28;1410;-73
2024/01/08 07:56:16;;;;;;;;;;;;;;;22.40;24.75;96904.88;4979162;28;1942;-74
2024/01/08 07:58:42;;;;;;;;;;;;;;;22.36;24.98;96908.66;4996824;28;1624;-74
2024/01/08 08:01:12;;;;;;;;;;;;;;;22.23;25.02;96904.44;4997013;28;1003;-74
2024/01/08 08:03:38;;;;;;;;;;;;;;;21.49;25.67;96903.69;4978705;28;1543;-75
2024/01/08 08:06:03;;;;;;;;;;;;;;;21.51;26.05;96909.66;4996647;28;1139;-73
2024/01/08 08:08:31;;;;;;;;;;;;;;;21.51;26.38;96906.84;4996703;28;953;-74
2024/01/08 08:10:59;;;;;;;;;;;;;;;22.35;24.69;96917.63;4996530;28;969;-74
2024/01/08 08:13:24;;;;;;;;;;;;;;;22.70;24.16;96925.72;4980246;28;1018;-74
2024/01/08 08:15:50;;;;;;;;;;;;;;;22.42;24.77;96939.19;4996757;28;1910;-74
2024/01/08 08:18:15;;;;;;;;;;;;;;;22.59;24.18;96943.25;4976132;28;1067;-74
2024/01/08 08:20:42;;;;;;;;;;;;;;;22.01;24.91;96944.25;5039529;28;938;-74
2024/01/08 08:23:08;;;;;;;;;;;;;;;22.38;24.59;96945.00;5039305;28;1088;-74
2024/01/08 08:25:34;;;;;;;;;;;;;;;22.09;24.80;96962.50;5022930;28;1097;-74
2024/01/08 08:27:59;;;;;;;;;;;;;;;22.32;24.78;96958.25;5055660;28;937;-74
2024/01/08 08:30:26;;;;;;;;;;;;;;;22.49;24.39;96959.50;5055799;28;1105;-74
2024/01/08 08:32:56;;;;;;;;;;;;;;;22.50;24.39;96963.09;5039055;28;1011;-74
2024/01/08 08:35:22;;;;;;;;;;;;;;;22.59;24.10;96961.03;5015274;28;1926;-75
2024/01/08 08:37:47;;;;;;;;;;;;;;;22.60;24.04;96970.34;5015180;28;1034;-74
2024/01/08 08:40:13;;;;;;;;;;;;;;;22.18;24.72;96971.03;5015851;28;1074;-74
2024/01/08 08:42:38;;;;;;;;;;;;;;;21.95;24.99;96980.13;5047465;28;1200;-74
2024/01/08 08:45:04;;;;;;;;;;;;;;;22.05;24.95;96979.66;5055380;28;956;-74
2024/01/08 08:47:30;;;;;;;;;;;;;;;22.08;24.96;96981.56;5055560;28;956;-74
2024/01/08 08:49:55;;;;;;;;;;;;;;;21.53;25.60;96977.91;5038773;28;1170;-74
2024/01/08 08:52:21;;;;;;;;;;;;;;;22.18;24.76;96954.03;5021640;28;1511;-74
2024/01/08 08:54:47;;;;;;;;;;;;;;;22.05;24.79;96951.34;5037882;28;971;-74
2024/01/08 08:57:12;;;;;;;;;;;;;;;22.33;24.39;96966.31;4995581;28;1906;-74
2024/01/08 08:59:38;;;;;;;;;;;;;;;22.09;24.63;96979.50;4996009;28;1012;-74
2024/01/08 09:02:04;;;;;;;;;;;;;;;21.85;25.08;96999.94;5014909;28;978;-75
2024/01/08 09:04:29;;;;;;;;;;;;;;;21.93;24.96;96994.00;4999248;28;1233;-74
2024/01/08 09:06:55;;;;;;;;;;;;;;;22.12;24.60;96986.28;5011918;28;1216;-75
2024/01/08 09:09:21;;;;;;;;;;;;;;;21.83;24.63;97001.69;5055134;28;1005;-74
2024/01/08 09:11:53;;;;;;;;;;;;;;;21.75;24.96;96995.53;5080660;27;1235;-75
2024/01/08 09:14:20;;;;;;;;;;;;;;;21.96;24.62;97001.53;5073081;28;1026;-75
2024/01/08 09:16:45;;;;;;;;;;;;;;;21.88;24.80;96998.25;5066718;28;1425;-75
2024/01/08 09:19:11;;;;;;;;;;;;;;;21.83;24.68;97001.69;5075987;28;1664;-75
2024/01/08 09:21:37;;;;;;;;;;;;;;;21.29;25.58;97017.25;5053545;28;897;-75
2024/01/08 09:24:05;;;;;;;;;;;;;;;22.07;24.51;97013.16;5088959;28;1485;-75
2024/01/08 09:26:30;;;;;;;;;;;;;;;21.29;25.19;97020.09;5111617;28;904;-75
2024/01/08 09:28:56;;;;;;;;;;;;;;;21.47;25.25;97013.75;5111709;28;895;-75
2024/01/08 09:31:21;;;;;;;;;;;;;;;21.53;24.96;97023.19;5094811;28;1902;-75
2024/01/08 09:33:47;;;;;;;;;;;;;;;21.47;25.24;97025.06;5094904;28;1547;-75
2024/01/08 09:36:13;;;;;;;;;;;;;;;21.79;24.87;97035.81;5067582;28;1706;-75
2024/01/08 09:38:38;;;;;;;;;;;;;;;21.46;24.95;97032.00;5091178;28;993;-75
2024/01/08 09:41:04;;;;;;;;;;;;;;;21.58;25.08;97036.72;5090973;28;933;-74
2024/01/08 09:43:29;;;;;;;;;;;;;;;21.67;24.52;97036.75;5097519;28;1533;-75
2024/01/08 09:45:58;;;;;;;;;;;;;;;21.70;24.56;97038.63;5093934;28;1474;-75
2024/01/08 09:48:23;;;;;;;;;;;;;;;21.77;24.69;97038.34;5094314;28;977;-75
2024/01/08 09:50:49;;;;;;;;;;;;;;;21.64;24.76;97034.84;5094435;28;1922;-75
2024/01/08 09:53:15;;;;;;;;;;;;;;;21.45;24.86;97038.88;5110328;28;1406;-75
2024/01/08 09:55:41;;;;;;;;;;;;;;;21.74;24.64;97044.16;5077716;28;1179;-75
2024/01/08 09:58:08;;;;;;;;;;;;;;;21.47;25.18;97042.03;5075831;28;981;-75
2024/01/08 10:00:34;;;;;;;;;;;;;;;21.79;24.28;97040.69;5096251;28;1399;-75
2024/01/08 10:02:59;;;;;;;;;;;;;;;21.66;24.58;97052.16;5052755;28;1085;-75
2024/01/08 10:05:26;;;;;;;;;;;;;;;21.56;24.95;97057.00;5051762;28;921;-75
2024/01/08 10:07:52;;;;;;;;;;;;;;;21.45;24.81;97051.00;5035056;28;1281;-75
2024/01/08 10:10:19;;;;;;;;;;;;;;;21.64;24.66;97054.66;5058635;28;2151;-75
2024/01/08 10:12:47;;;;;;;;;;;;;;;21.72;24.62;97053.13;5073517;28;1170;-75
2024/01/08 10:15:18;;;;;;;;;;;;;;;21.94;24.15;97052.22;5070179;28;964;-75
2024/01/08 10:17:46;;;;;;;;;;;;;;;21.59;24.61;97050.41;5090369;28;1331;-75
2024/01/08 10:20:13;;;;;;;;;;;;;;;21.71;24.64;97051.56;5072225;28;1360;-75
2024/01/08 10:22:38;;;;;;;;;;;;;;;21.82;24.23;97054.72;5080399;28;1327;-75
2024/01/08 10:25:04;;;;;;;;;;;;;;;22.27;23.52;97049.56;5076596;28;982;-75
2024/01/08 10:27:30;;;;;;;;;;;;;;;22.25;23.55;97044.38;5059731;28;1079;-75
2024/01/08 10:29:56;;;;;;;;;;;;;;;22.14;23.66;97049.75;5058452;28;1981;-75
2024/01/08 10:32:24;;;;;;;;;;;;;;;22.23;23.66;97052.59;5059997;28;1030;-75
2024/01/08 10:34:50;;;;;;;;;;;;;;;22.32;23.30;97058.22;5076581;28;964;-75
2024/01/08 10:37:15;;;;;;;;;;;;;;;22.53;22.96;97067.03;5059985;28;933;-75
2024/01/08 10:39:42;;;;;;;;;;;;;;;22.03;23.81;97072.06;5059649;28;946;-75
2024/01/08 10:42:08;;;;;;;;;;;;;;;22.14;23.76;97072.41;5039708;28;964;-75
2024/01/08 10:44:34;;;;;;;;;;;;;;;21.89;23.91;97069.81;5056335;28;965;-75
2024/01/08 10:47:00;;;;;;;;;;;;;;;22.13;23.56;97055.88;5051883;28;1310;-75
2024/01/08 10:49:30;;;;;;;;;;;;;;;21.83;23.71;97075.31;5039990;28;1110;-75
2024/01/08 10:51:56;;;;;;;;;;;;;;;22.30;23.18;97062.81;5070797;28;1501;-75
2024/01/08 10:54:21;;;;;;;;;;;;;;;22.48;22.94;97062.78;5069712;28;979;-75
2024/01/08 10:56:48;;;;;;;;;;;;;;;22.47;23.08;97077.44;5037401;28;975;-75
2024/01/08 10:59:13;;;;;;;;;;;;;;;22.40;22.76;97078.56;5036362;28;1142;-75
2024/01/08 11:01:39;;;;;;;;;;;;;;;22.36;23.23;97084.38;5055594;28;1342;-75
2024/01/08 11:04:05;;;;;;;;;;;;;;;22.38;22.97;97092.38;5039425;28;1369;-75
2024/01/08 11:06:33;;;;;;;;;;;;;;;22.34;22.84;97109.56;5022861;28;930;-75
2024/01/08 11:08:59;;;;;;;;;;;;;;;22.41;22.57;97116.19;5035846;28;1006;-75
2024/01/08 11:11:25;;;;;;;;;;;;;;;22.34;22.91;97118.06;5012101;28;1914;-75
2024/01/08 11:13:50;;;;;;;;;;;;;;;21.59;24.31;97131.72;4979976;28;1323;-75
2024/01/08 11:16:25;;;;;;;;;;;;;;;22.09;23.39;97121.16;5012850;28;1038;-75
2024/01/08 11:18:50;;;;;;;;;;;;;;;22.15;23.20;97119.31;4996550;28;1227;-75
2024/01/08 11:21:23;;;;;;;;;;;;;;;21.98;23.39;97126.50;4996070;28;1343;-75
2024/01/08 11:23:48;;;;;;;;;;;;;;;22.09;23.01;97132.50;4980062;28;964;-75
2024/01/08 11:26:18;;;;;;;;;;;;;;;21.76;23.71;97116.06;4980557;28;1861;-75
2024/01/08 11:28:44;;;;;;;;;;;;;;;21.74;23.41;97112.88;5011891;28;1375;-75
2024/01/08 11:31:28;;;;;;;;;;;;;;;21.96;23.39;97115.63;4993637;28;1977;-75
2024/01/08 11:34:12;;;;;;;;;;;;;;;22.05;23.20;97112.03;5011375;28;953;-75
2024/01/08 11:36:47;;;;;;;;;;;;;;;21.74;23.63;97118.56;4995881;28;1003;-75
2024/01/08 11:39:15;;;;;;;;;;;;;;;21.32;23.74;97115.41;5011717;28;1569;-75
2024/01/08 11:41:41;;;;;;;;;;;;;;;21.88;23.26;97116.41;4996093;28;998;-75
2024/01/08 11:44:07;;;;;;;;;;;;;;;21.79;23.35;97114.31;5011922;28;1334;-75
2024/01/08 11:46:34;;;;;;;;;;;;;;;21.87;23.42;97112.00;5007275;28;1042;-75
2024/01/08 11:49:00;;;;;;;;;;;;;;;21.46;23.44;97119.72;5062398;28;1872;-75
2024/01/08 11:51:26;;;;;;;;;;;;;;;21.23;23.81;97118.94;5073071;28;2003;-75
2024/01/08 11:53:52;;;;;;;;;;;;;;;21.65;23.45;97110.03;5056235;28;1449;-74
2024/01/08 11:56:17;;;;;;;;;;;;;;;21.76;23.47;97104.72;5072151;28;1081;-75
2024/01/08 11:58:43;;;;;;;;;;;;;;;21.69;23.09;97110.66;5037759;28;1438;-75
2024/01/08 12:01:18;;;;;;;;;;;;;;;21.91;23.23;97109.78;5071563;28;911;-75
2024/01/08 12:03:44;;;;;;;;;;;;;;;21.84;22.82;97108.81;5054821;28;956;-75
2024/01/08 12:06:09;;;;;;;;;;;;;;;21.99;23.08;97113.91;5055122;28;979;-75
2024/01/08 12:08:35;;;;;;;;;;;;;;;22.18;22.55;97121.22;5054317;28;1366;-75
2024/01/08 12:11:01;;;;;;;;;;;;;;;22.16;22.67;97131.44;5038126;28;1910;-74
2024/01/08 12:13:26;;;;;;;;;;;;;;;22.19;22.62;97136.94;5034606;28;1001;-75
2024/01/08 12:15:52;;;;;;;;;;;;;;;22.20;22.35;97144.19;5034864;28;1019;-75
2024/01/08 12:18:18;;;;;;;;;;;;;;;22.20;22.43;97146.22;5034876;28;1038;-75
2024/01/08 12:20:46;;;;;;;;;;;;;;;22.19;22.58;97147.50;5034020;28;1405;-75
2024/01/08 12:23:12;;;;;;;;;;;;;;;22.06;22.40;97156.09;5034705;28;1262;-75
2024/01/08 12:25:38;;;;;;;;;;;;;;;22.08;22.57;97142.25;5018270;28;995;-75
2024/01/08 12:28:03;;;;;;;;;;;;;;;22.28;21.96;97156.81;5051126;28;1057;-75
2024/01/08 12:30:29;;;;;;;;;;;;;;;22.08;22.19;97164.91;5041367;28;1966;-75
2024/01/08 12:32:57;;;;;;;;;;;;;;;22.29;21.81;97157.59;5017943;28;988;-75
2024/01/08 12:35:23;;;;;;;;;;;;;;;21.98;22.27;97138.59;4998193;28;938;-75
2024/01/08 12:37:49;;;;;;;;;;;;;;;22.15;22.09;97178.03;5014519;28;1040;-75
2024/01/08 12:40:14;;;;;;;;;;;;;;;22.04;22.04;97181.25;5008679;28;1453;-75
2024/01/08 12:42:41;;;;;;;;;;;;;;;22.28;22.02;97196.47;5014752;28;996;-75
2024/01/08 12:45:07;;;;;;;;;;;;;;;22.15;22.19;97198.63;4997982;28;1411;-75
2024/01/08 12:47:33;;;;;;;;;;;;;;;22.02;22.30;97195.09;4982084;28;1121;-75
2024/01/08 12:49:59;;;;;;;;;;;;;;;21.35;22.86;97198.56;5011335;28;1910;-75
2024/01/08 12:52:24;;;;;;;;;;;;;;;21.91;22.31;97206.06;5070726;28;1016;-75
2024/01/08 12:54:50;;;;;;;;;;;;;;;21.81;22.19;97225.88;5053883;28;942;-75